Terminal Aerodrome Forecast
Issued by NWS Sterling, VA

Current Version | Previous Version | Text Only | Print | Product List | Glossary On
Versions: 1 2 3 4 5 6 7 8 9 10 11 12 13 14 15 16 17 18 19 20 21 22 23 24 25 26 27 28 29 30
799
FTUS41 KLWX 201720
TAFDCA
TAF
KDCA 201720Z 2018/2124 20011G18KT P6SM FEW025 SCT200
     FM210600 20007KT P6SM SCT025 BKN050
     FM210900 21008KT P6SM -DZ BKN008 BKN025
     FM211500 21011G18KT P6SM SCT025 BKN070=

USA.gov is the U.S. government's official web portal to all federal, state and local government web resources and services.